createdAt,value
2019-03-25T00:02:29.623Z,16.43
2019-03-25T00:04:59.389Z,15.63
2019-03-25T00:07:29.153Z,15.90
2019-03-25T00:09:59.090Z,16.17
2019-03-25T00:12:29.219Z,15.53
2019-03-25T00:14:59.049Z,15.90
2019-03-25T00:17:28.843Z,15.27
2019-03-25T00:19:58.659Z,14.10
2019-03-25T00:22:28.328Z,14.03
2019-03-25T00:24:58.099Z,13.73
2019-03-25T00:27:27.908Z,13.67
2019-03-25T00:29:57.692Z,14.27
2019-03-25T00:32:29.815Z,14.57
2019-03-25T00:34:59.571Z,13.23
2019-03-25T00:37:29.324Z,14.17
2019-03-25T00:39:59.114Z,14.93
2019-03-25T00:42:31.278Z,14.97
2019-03-25T00:45:01.093Z,14.40
2019-03-25T00:47:32.839Z,15.60
2019-03-25T00:50:02.616Z,15.57
2019-03-25T00:52:32.413Z,15.10
2019-03-25T00:55:02.215Z,16.10
2019-03-25T00:57:31.976Z,15.50
2019-03-25T01:00:01.767Z,15.10
2019-03-25T01:02:31.577Z,15.20
2019-03-25T01:05:01.349Z,15.80
2019-03-25T01:07:31.133Z,14.83
2019-03-25T01:10:00.959Z,14.60
2019-03-25T01:12:30.691Z,14.63
2019-03-25T01:15:00.487Z,14.63
2019-03-25T01:17:31.529Z,15.57
2019-03-25T01:20:01.365Z,15.60
2019-03-25T01:22:31.503Z,15.43
2019-03-25T01:25:02.583Z,15.53
2019-03-25T01:27:33.557Z,15.23
2019-03-25T01:30:05.789Z,15.47
2019-03-25T01:32:35.588Z,15.10
2019-03-25T01:35:06.500Z,15.60
2019-03-25T01:37:36.303Z,15.53
2019-03-25T01:40:07.524Z,16.23
2019-03-25T01:42:37.578Z,14.77
2019-03-25T01:45:07.398Z,15.07
2019-03-25T01:47:37.209Z,15.27
2019-03-25T01:50:07.436Z,15.07
2019-03-25T01:52:37.258Z,16.17
2019-03-25T01:55:13.275Z,15.17
2019-03-25T01:57:38.713Z,15.53
2019-03-25T02:00:08.696Z,14.93
2019-03-25T02:02:38.511Z,15.87
2019-03-25T02:05:08.300Z,15.47
2019-03-25T02:07:38.030Z,14.93
2019-03-25T02:10:10.176Z,15.47
2019-03-25T02:12:40.046Z,14.27
2019-03-25T02:15:09.831Z,14.80
2019-03-25T02:17:39.620Z,13.83
2019-03-25T02:20:09.495Z,14.00
2019-03-25T02:22:40.027Z,13.80
2019-03-25T02:25:10.065Z,13.80
2019-03-25T02:27:40.400Z,13.93
2019-03-25T02:30:10.281Z,13.23
2019-03-25T02:32:40.100Z,14.53
2019-03-25T02:35:09.867Z,14.30
2019-03-25T02:37:39.651Z,13.97
2019-03-25T02:40:09.429Z,14.03
2019-03-25T02:42:39.231Z,13.97
2019-03-25T02:45:09.099Z,13.87
2019-03-25T02:47:38.871Z,13.50
2019-03-25T02:50:08.775Z,13.60
2019-03-25T02:52:38.537Z,13.77
2019-03-25T02:55:08.542Z,14.20
2019-03-25T02:57:38.401Z,13.57
2019-03-25T03:00:09.610Z,14.00
2019-03-25T03:02:39.793Z,13.23
2019-03-25T03:05:09.907Z,13.20
2019-03-25T03:07:39.703Z,13.97
2019-03-25T03:10:09.528Z,13.43
2019-03-25T03:12:39.319Z,13.07
2019-03-25T03:15:09.213Z,13.90
2019-03-25T03:17:39.008Z,13.50
2019-03-25T03:20:08.820Z,14.07
2019-03-25T03:22:38.618Z,14.13
2019-03-25T03:25:08.458Z,13.50
2019-03-25T03:27:38.205Z,15.60
2019-03-25T03:30:08.292Z,16.07
2019-03-25T03:32:38.051Z,15.73
2019-03-25T03:35:08.250Z,15.83
2019-03-25T03:37:38.052Z,13.93
2019-03-25T03:40:07.928Z,14.33
2019-03-25T03:42:37.897Z,14.13
2019-03-25T03:45:08.032Z,14.43
2019-03-25T03:47:37.807Z,13.97
2019-03-25T03:50:14.059Z,13.53
2019-03-25T03:52:44.586Z,14.27
2019-03-25T03:55:14.329Z,14.13
2019-03-25T03:57:44.162Z,14.03
2019-03-25T04:00:16.950Z,14.27
2019-03-25T04:02:46.730Z,13.47
2019-03-25T04:05:16.524Z,14.20
2019-03-25T04:07:47.053Z,14.47
2019-03-25T04:10:16.836Z,13.80
2019-03-25T04:12:46.652Z,13.47
2019-03-25T04:15:27.693Z,14.43
2019-03-25T04:17:58.281Z,14.10
2019-03-25T04:20:27.886Z,14.17
2019-03-25T04:22:58.070Z,13.80
2019-03-25T04:25:29.484Z,14.80
2019-03-25T04:27:59.238Z,13.53
2019-03-25T04:30:28.840Z,15.10
2019-03-25T04:32:58.660Z,14.00
2019-03-25T04:35:28.438Z,14.13
2019-03-25T04:37:58.233Z,13.80
2019-03-25T04:40:28.023Z,14.00
2019-03-25T04:43:00.491Z,13.57
2019-03-25T04:45:30.318Z,14.00
2019-03-25T04:48:00.018Z,14.60
2019-03-25T04:50:29.805Z,13.80
2019-03-25T04:52:59.627Z,14.50
2019-03-25T04:55:30.877Z,13.57
2019-03-25T04:58:00.661Z,14.13
2019-03-25T05:00:35.253Z,14.27
2019-03-25T05:03:05.226Z,14.33
2019-03-25T05:05:36.309Z,14.27
2019-03-25T05:08:06.263Z,14.10
2019-03-25T05:10:36.090Z,14.53
2019-03-25T05:13:05.892Z,13.97
2019-03-25T05:15:35.636Z,14.40
2019-03-25T05:18:05.471Z,15.10
2019-03-25T05:20:35.256Z,15.30
2019-03-25T05:23:05.120Z,15.20
2019-03-25T05:25:35.008Z,15.43
2019-03-25T05:28:04.704Z,16.10
2019-03-25T05:30:34.561Z,15.30
2019-03-25T05:33:04.339Z,15.97
2019-03-25T05:35:34.175Z,16.17
2019-03-25T05:38:03.993Z,17.60
2019-03-25T05:40:33.774Z,16.50
2019-03-25T05:43:03.586Z,17.50
2019-03-25T05:45:33.389Z,16.67
2019-03-25T05:48:03.201Z,18.17
2019-03-25T05:50:33.015Z,16.80
2019-03-25T05:53:02.858Z,16.13
2019-03-25T05:55:33.044Z,17.83
2019-03-25T05:58:02.861Z,18.30
2019-03-25T06:00:34.210Z,17.80
2019-03-25T06:03:03.975Z,16.90
2019-03-25T06:05:34.595Z,17.20
2019-03-25T06:08:04.410Z,17.10
2019-03-25T06:10:34.510Z,16.60
2019-03-25T06:13:04.320Z,18.30
2019-03-25T06:15:34.153Z,29.20
2019-03-25T06:18:05.509Z,41.93
2019-03-25T06:20:35.812Z,25.97
2019-03-25T06:23:05.565Z,23.07
2019-03-25T06:25:35.365Z,23.90
2019-03-25T06:28:05.163Z,21.23
2019-03-25T06:30:34.981Z,20.23
2019-03-25T06:33:12.295Z,20.60
2019-03-25T06:35:36.298Z,20.10
2019-03-25T06:38:06.428Z,19.33
2019-03-25T06:40:36.186Z,18.90
2019-03-25T06:43:05.996Z,20.57
2019-03-25T06:45:37.247Z,19.87
2019-03-25T06:48:07.070Z,20.17
2019-03-25T06:50:37.828Z,23.77
2019-03-25T06:53:07.637Z,23.90
2019-03-25T06:55:37.411Z,26.83
2019-03-25T06:58:07.248Z,27.30
2019-03-25T07:00:37.081Z,27.60
2019-03-25T07:03:06.849Z,27.60
2019-03-25T07:05:36.706Z,29.17
2019-03-25T07:08:06.516Z,28.30
2019-03-25T07:10:37.180Z,28.30
2019-03-25T07:13:07.311Z,29.40
2019-03-25T07:15:37.064Z,28.30
2019-03-25T07:18:06.954Z,28.00
2019-03-25T07:20:36.794Z,28.50
2019-03-25T07:23:06.616Z,31.10
2019-03-25T07:25:36.486Z,30.90
2019-03-25T07:28:06.313Z,30.17
2019-03-25T07:30:36.111Z,32.63
2019-03-25T07:33:05.984Z,33.10
2019-03-25T07:35:35.779Z,34.97
2019-03-25T07:38:06.800Z,36.53
2019-03-25T07:40:36.629Z,35.97
2019-03-25T07:43:06.926Z,35.50
2019-03-25T07:45:36.769Z,35.57
2019-03-25T07:48:06.592Z,35.20
2019-03-25T07:50:36.422Z,38.13
2019-03-25T07:53:06.253Z,36.20
2019-03-25T07:55:36.057Z,45.10
2019-03-25T07:58:05.900Z,45.53
2019-03-25T08:00:37.773Z,37.30
2019-03-25T08:03:07.626Z,36.67
2019-03-25T08:05:37.429Z,38.07
2019-03-25T08:08:07.479Z,36.63
2019-03-25T08:10:37.631Z,36.97
2019-03-25T08:13:07.500Z,37.17
2019-03-25T08:15:37.440Z,37.67
2019-03-25T08:18:08.530Z,39.53
2019-03-25T08:20:39.334Z,39.63
2019-03-25T08:23:09.168Z,39.47
2019-03-25T08:25:39.094Z,40.97
2019-03-25T08:28:08.933Z,39.50
2019-03-25T08:30:38.725Z,39.20
2019-03-25T08:33:09.013Z,39.53
2019-03-25T08:35:38.925Z,39.00
2019-03-25T08:38:08.863Z,40.30
2019-03-25T08:40:38.813Z,40.17
2019-03-25T08:43:08.611Z,39.60
2019-03-25T08:45:38.416Z,39.77
2019-03-25T08:48:08.228Z,63.33
2019-03-25T08:50:38.021Z,42.30
2019-03-25T08:53:07.909Z,39.43
2019-03-25T08:55:37.738Z,41.17
2019-03-25T08:58:12.285Z,41.37
2019-03-25T09:00:41.197Z,40.53
2019-03-25T09:03:11.128Z,39.07
2019-03-25T09:05:41.067Z,40.80
2019-03-25T09:08:11.736Z,41.33
2019-03-25T09:10:41.677Z,42.37
2019-03-25T09:13:11.481Z,40.77
2019-03-25T09:15:41.288Z,41.00
2019-03-25T09:18:11.232Z,41.40
2019-03-25T09:20:41.337Z,42.40
2019-03-25T09:23:11.289Z,41.67
2019-03-25T09:25:41.975Z,41.57
2019-03-25T09:28:23.421Z,41.13
2019-03-25T09:30:55.422Z,50.00
2019-03-25T09:33:25.215Z,56.30
2019-03-25T09:35:55.167Z,49.30
2019-03-25T09:38:25.127Z,41.90
2019-03-25T09:40:54.926Z,41.93
2019-03-25T09:43:25.907Z,41.77
2019-03-25T09:45:57.499Z,42.23
2019-03-25T09:48:27.292Z,42.53
2019-03-25T09:50:57.116Z,42.40
2019-03-25T09:53:26.833Z,41.67
2019-03-25T09:55:56.692Z,41.53
2019-03-25T09:58:35.852Z,42.67
2019-03-25T10:00:57.962Z,41.73
2019-03-25T10:03:27.775Z,41.97
2019-03-25T10:05:57.610Z,42.87
2019-03-25T10:08:29.046Z,42.50
2019-03-25T10:10:58.882Z,41.83
2019-03-25T10:13:28.693Z,43.07
2019-03-25T10:15:58.469Z,42.43
2019-03-25T10:18:28.217Z,43.77
2019-03-25T10:20:58.038Z,45.27
2019-03-25T10:23:27.832Z,41.10
2019-03-25T10:25:57.674Z,42.70
2019-03-25T10:28:28.310Z,56.33
2019-03-25T10:30:58.119Z,48.73
2019-03-25T10:33:28.146Z,42.23
2019-03-25T10:35:58.124Z,42.20
2019-03-25T10:38:27.845Z,39.40
2019-03-25T10:40:57.665Z,41.27
2019-03-25T10:43:27.528Z,41.17
2019-03-25T10:45:57.526Z,41.07
2019-03-25T10:48:27.338Z,40.10
2019-03-25T10:50:57.181Z,40.17
2019-03-25T10:53:27.994Z,41.27
2019-03-25T10:55:57.799Z,40.00
2019-03-25T10:58:27.636Z,40.50
2019-03-25T11:00:57.619Z,41.37
2019-03-25T11:03:27.890Z,41.43
2019-03-25T11:06:00.020Z,40.83
2019-03-25T11:08:29.922Z,40.80
2019-03-25T11:11:01.047Z,40.47
2019-03-25T11:13:30.759Z,41.93
2019-03-25T11:16:00.550Z,50.60
2019-03-25T11:18:30.318Z,42.87
2019-03-25T11:21:00.159Z,45.20
2019-03-25T11:23:29.955Z,42.90
2019-03-25T11:25:59.809Z,43.33
2019-03-25T11:28:29.588Z,43.83
2019-03-25T11:30:59.431Z,49.90
2019-03-25T11:33:29.313Z,46.47
2019-03-25T11:35:59.293Z,45.37
2019-03-25T11:38:29.977Z,42.93
2019-03-25T11:40:59.937Z,42.90
2019-03-25T11:43:29.878Z,43.13
2019-03-25T11:45:59.707Z,43.63
2019-03-25T11:48:29.415Z,43.83
2019-03-25T11:50:59.096Z,41.73
2019-03-25T11:53:28.997Z,42.40
2019-03-25T11:55:58.810Z,43.97
2019-03-25T11:58:28.628Z,43.73
2019-03-25T12:01:00.350Z,44.87
2019-03-25T12:03:30.317Z,43.50
2019-03-25T12:06:01.747Z,44.43
2019-03-25T12:08:31.449Z,43.97
2019-03-25T12:11:01.242Z,44.93
2019-03-25T12:13:31.073Z,44.60
2019-03-25T12:16:00.890Z,42.23
2019-03-25T12:18:31.003Z,43.93
2019-03-25T12:21:00.762Z,44.70
2019-03-25T12:23:30.563Z,44.07
2019-03-25T12:26:02.150Z,45.90
2019-03-25T12:28:32.050Z,43.43
2019-03-25T12:31:02.048Z,43.60
2019-03-25T12:33:31.728Z,43.53
2019-03-25T12:36:01.524Z,44.60
2019-03-25T12:38:31.299Z,40.70
2019-03-25T12:41:01.161Z,41.73
2019-03-25T12:43:33.629Z,48.20
2019-03-25T12:46:04.133Z,44.33
2019-03-25T12:48:34.004Z,46.50
2019-03-25T12:51:03.788Z,50.53
2019-03-25T12:53:36.156Z,49.00
2019-03-25T12:56:06.003Z,43.37
2019-03-25T12:58:35.780Z,41.23
2019-03-25T13:01:05.505Z,38.53
2019-03-25T13:03:35.402Z,23.90
2019-03-25T13:06:05.185Z,20.43
2019-03-25T13:08:35.078Z,23.07
2019-03-25T13:11:04.967Z,22.57
2019-03-25T13:13:36.150Z,17.43
2019-03-25T13:16:06.329Z,14.93
2019-03-25T13:18:36.176Z,12.20
2019-03-25T13:21:07.702Z,11.07
2019-03-25T13:23:37.503Z,9.77
2019-03-25T13:26:07.399Z,11.57
2019-03-25T13:28:37.467Z,11.73
2019-03-25T13:31:08.439Z,13.20
2019-03-25T13:33:38.262Z,14.53
2019-03-25T13:36:08.020Z,13.00
2019-03-25T13:38:37.784Z,21.83
2019-03-25T13:41:10.647Z,31.60
2019-03-25T13:43:40.414Z,11.77
2019-03-25T13:46:11.936Z,7.70
2019-03-25T13:48:42.549Z,8.27
2019-03-25T13:51:12.393Z,10.50
2019-03-25T13:53:42.214Z,4.60
2019-03-25T13:56:12.108Z,2.20
2019-03-25T13:58:41.770Z,1.43
2019-03-25T14:01:11.559Z,3.30
2019-03-25T14:03:43.070Z,1.70
2019-03-25T14:06:12.877Z,3.27
2019-03-25T14:08:42.735Z,4.10
2019-03-25T14:11:12.869Z,2.07
2019-03-25T14:13:49.198Z,1.73
2019-03-25T14:16:14.216Z,1.97
2019-03-25T14:18:44.343Z,1.20
2019-03-25T14:21:14.144Z,1.80
2019-03-25T14:23:44.027Z,1.70
2019-03-25T14:26:15.487Z,3.00
2019-03-25T14:28:46.864Z,3.23
2019-03-25T14:31:16.726Z,2.83
2019-03-25T14:33:46.585Z,3.13
2019-03-25T14:36:16.464Z,3.40
2019-03-25T14:38:46.454Z,7.60
2019-03-25T14:41:16.224Z,2.40
2019-03-25T14:43:45.982Z,2.47
2019-03-25T14:46:15.774Z,4.33
2019-03-25T14:48:45.629Z,2.50
2019-03-25T14:51:15.382Z,4.60
2019-03-25T14:53:45.597Z,4.30
2019-03-25T14:56:15.766Z,4.37
2019-03-25T14:58:45.549Z,3.57
2019-03-25T15:01:15.324Z,3.07
2019-03-25T15:03:45.092Z,3.20
2019-03-25T15:06:14.849Z,3.00
2019-03-25T15:08:44.666Z,2.67
2019-03-25T15:11:14.846Z,2.67
2019-03-25T15:13:44.650Z,2.60
2019-03-25T15:16:14.593Z,2.60
2019-03-25T15:18:44.456Z,2.10
2019-03-25T15:21:14.380Z,2.40
2019-03-25T15:23:44.540Z,2.10
2019-03-25T15:26:14.554Z,2.20
2019-03-25T15:28:44.476Z,2.83
2019-03-25T15:31:14.229Z,2.63
2019-03-25T15:33:44.059Z,2.13
2019-03-25T15:36:13.822Z,2.30
2019-03-25T15:38:43.614Z,2.60
2019-03-25T15:41:13.617Z,7.07
2019-03-25T15:43:43.414Z,2.90
2019-03-25T15:46:13.348Z,4.40
2019-03-25T15:48:43.218Z,3.60
2019-03-25T15:51:13.067Z,2.40
2019-03-25T15:53:42.871Z,2.73
2019-03-25T15:56:13.572Z,2.43
2019-03-25T15:58:43.744Z,2.50
2019-03-25T16:01:13.762Z,2.30
2019-03-25T16:03:43.572Z,2.73
2019-03-25T16:06:13.390Z,3.73
2019-03-25T16:08:43.181Z,3.30
2019-03-25T16:11:13.409Z,2.97
2019-03-25T16:13:43.259Z,7.13
2019-03-25T16:16:13.082Z,10.23
2019-03-25T16:18:42.964Z,2.50
2019-03-25T16:21:12.935Z,2.47
2019-03-25T16:23:42.845Z,2.50
2019-03-25T16:26:12.750Z,1.80
2019-03-25T16:28:42.605Z,1.80
2019-03-25T16:31:13.726Z,2.00
2019-03-25T16:33:44.096Z,1.57
2019-03-25T16:36:14.104Z,1.93
2019-03-25T16:38:44.088Z,1.80
2019-03-25T16:41:13.906Z,1.50
2019-03-25T16:43:43.776Z,1.90
2019-03-25T16:46:14.236Z,1.97
2019-03-25T16:48:43.962Z,1.73
2019-03-25T16:51:13.865Z,1.93
2019-03-25T16:53:44.082Z,2.23
2019-03-25T16:56:15.804Z,1.73
2019-03-25T16:58:45.594Z,1.90
2019-03-25T17:01:15.396Z,1.73
2019-03-25T17:03:45.394Z,4.60
2019-03-25T17:06:15.502Z,18.00
2019-03-25T17:08:45.314Z,8.53
2019-03-25T17:11:15.173Z,1.50
2019-03-25T17:13:47.966Z,1.90
2019-03-25T17:16:17.808Z,1.90
2019-03-25T17:18:47.721Z,2.00
2019-03-25T17:21:17.517Z,1.80
2019-03-25T17:23:48.501Z,2.00
2019-03-25T17:26:18.963Z,1.97
2019-03-25T17:28:49.389Z,1.90
2019-03-25T17:31:21.266Z,1.90
2019-03-25T17:33:50.657Z,3.43
2019-03-25T17:36:20.426Z,1.97
2019-03-25T17:38:50.245Z,1.97
2019-03-25T17:41:20.034Z,1.63
2019-03-25T17:43:49.935Z,2.00
2019-03-25T17:46:19.729Z,1.90
2019-03-25T17:48:51.476Z,4.00
2019-03-25T17:51:21.316Z,1.63
2019-03-25T17:53:51.271Z,2.23
2019-03-25T17:56:22.514Z,1.20
2019-03-25T17:58:54.014Z,1.60
2019-03-25T18:01:32.140Z,1.10
2019-03-25T18:03:57.740Z,0.87
2019-03-25T18:06:27.633Z,0.77
2019-03-25T18:08:58.302Z,1.10
2019-03-25T18:11:28.293Z,0.63
2019-03-25T18:13:58.338Z,0.90
2019-03-25T18:16:29.627Z,0.90
2019-03-25T18:18:59.535Z,0.70
2019-03-25T18:21:29.474Z,7.73
2019-03-25T18:23:59.424Z,0.50
2019-03-25T18:26:29.400Z,0.63
2019-03-25T18:28:59.262Z,0.70
2019-03-25T18:31:29.064Z,0.80
2019-03-25T18:33:59.108Z,0.50
2019-03-25T18:36:30.178Z,0.50
2019-03-25T18:39:00.073Z,0.90
2019-03-25T18:41:30.362Z,1.10
2019-03-25T18:44:01.456Z,1.00
2019-03-25T18:46:33.320Z,0.90
2019-03-25T18:49:02.902Z,0.80
2019-03-25T18:51:32.760Z,0.50
2019-03-25T18:54:02.625Z,0.73
2019-03-25T18:56:32.809Z,0.70
2019-03-25T18:59:03.877Z,0.50
2019-03-25T19:01:33.716Z,0.60
2019-03-25T19:04:03.726Z,0.57
2019-03-25T19:06:33.794Z,1.20
2019-03-25T19:09:04.477Z,0.70
2019-03-25T19:11:34.667Z,0.60
2019-03-25T19:14:05.248Z,0.60
2019-03-25T19:16:36.685Z,0.70
2019-03-25T19:19:07.639Z,15.00
2019-03-25T19:21:37.378Z,4.63
2019-03-25T19:24:07.507Z,1.00
2019-03-25T19:26:37.389Z,1.47
2019-03-25T19:29:07.235Z,0.70
2019-03-25T19:31:37.057Z,1.60
2019-03-25T19:34:06.943Z,0.90
2019-03-25T19:36:36.771Z,0.70
2019-03-25T19:39:07.352Z,0.70
2019-03-25T19:41:38.285Z,1.40
2019-03-25T19:44:08.181Z,0.57
2019-03-25T19:46:39.165Z,0.50
2019-03-25T19:49:10.608Z,0.70
2019-03-25T19:51:42.017Z,0.60
2019-03-25T19:54:12.249Z,0.70
2019-03-25T19:56:42.129Z,0.80
2019-03-25T19:59:11.964Z,0.70
2019-03-25T20:01:41.792Z,0.83
2019-03-25T20:04:16.677Z,0.70
2019-03-25T20:06:46.536Z,0.60
2019-03-25T20:09:16.400Z,0.80
2019-03-25T20:11:46.260Z,0.83
2019-03-25T20:14:18.123Z,0.60
2019-03-25T20:16:48.302Z,0.63
2019-03-25T20:19:18.054Z,1.00
2019-03-25T20:21:47.928Z,0.60
2019-03-25T20:24:20.568Z,0.63
2019-03-25T20:26:50.402Z,0.60
2019-03-25T20:29:20.615Z,0.57
2019-03-25T20:31:50.847Z,0.77
2019-03-25T20:34:20.774Z,0.63
2019-03-25T20:36:52.412Z,0.70
2019-03-25T20:39:22.390Z,0.60
2019-03-25T20:41:52.281Z,0.57
2019-03-25T20:44:22.165Z,1.20
2019-03-25T20:46:52.068Z,1.90
2019-03-25T20:49:22.272Z,0.80
2019-03-25T20:51:52.255Z,1.70
2019-03-25T20:54:22.186Z,0.80
2019-03-25T20:56:52.049Z,0.80
2019-03-25T20:59:21.822Z,0.50
2019-03-25T21:01:51.743Z,1.10
2019-03-25T21:04:21.586Z,0.70
2019-03-25T21:06:54.473Z,0.57
2019-03-25T21:09:23.028Z,0.60
2019-03-25T21:11:52.835Z,0.80
2019-03-25T21:14:22.690Z,0.70
2019-03-25T21:16:52.529Z,0.60
2019-03-25T21:19:23.250Z,0.50
2019-03-25T21:21:53.166Z,0.80
2019-03-25T21:24:23.175Z,0.60
2019-03-25T21:26:53.717Z,0.40
2019-03-25T21:29:24.036Z,0.40
2019-03-25T21:31:54.066Z,0.50
2019-03-25T21:34:24.031Z,0.50
2019-03-25T21:36:53.865Z,0.50
2019-03-25T21:39:23.737Z,0.60
2019-03-25T21:41:53.621Z,0.70
2019-03-25T21:44:23.403Z,0.43
2019-03-25T21:46:53.314Z,0.50
2019-03-25T21:49:23.261Z,0.50
2019-03-25T21:51:53.050Z,0.50
2019-03-25T21:54:24.894Z,0.40
2019-03-25T21:56:55.125Z,0.50
2019-03-25T21:59:25.352Z,0.50
2019-03-25T22:01:55.207Z,0.40
2019-03-25T22:04:24.929Z,0.60
2019-03-25T22:06:54.727Z,0.40
2019-03-25T22:09:24.551Z,0.40
2019-03-25T22:11:54.397Z,0.40
2019-03-25T22:14:25.754Z,0.60
2019-03-25T22:16:55.595Z,0.60
2019-03-25T22:19:25.887Z,0.53
2019-03-25T22:21:55.664Z,0.40
2019-03-25T22:24:25.491Z,0.40
2019-03-25T22:26:55.293Z,0.40
2019-03-25T22:29:25.104Z,0.40
2019-03-25T22:31:54.983Z,0.30
2019-03-25T22:34:24.774Z,0.30
2019-03-25T22:36:54.529Z,0.20
2019-03-25T22:39:24.305Z,0.23
2019-03-25T22:41:54.073Z,0.40
2019-03-25T22:44:23.859Z,0.40
2019-03-25T22:46:53.618Z,0.30
2019-03-25T22:49:23.421Z,0.30
2019-03-25T22:51:53.233Z,0.20
2019-03-25T22:54:22.975Z,0.20
2019-03-25T22:56:52.759Z,0.30
2019-03-25T22:59:22.594Z,0.20
2019-03-25T23:01:52.349Z,0.20
2019-03-25T23:04:22.167Z,0.30
2019-03-25T23:06:51.878Z,0.20
2019-03-25T23:09:21.722Z,0.20
2019-03-25T23:11:51.601Z,0.20
2019-03-25T23:14:21.358Z,0.30
2019-03-25T23:16:51.113Z,0.30
2019-03-25T23:19:20.771Z,0.30
2019-03-25T23:21:50.492Z,0.30
2019-03-25T23:24:20.194Z,0.20
2019-03-25T23:26:49.886Z,0.20
2019-03-25T23:29:19.556Z,0.20
2019-03-25T23:31:49.905Z,0.20
2019-03-25T23:34:20.064Z,0.20
2019-03-25T23:36:49.867Z,0.30
2019-03-25T23:39:19.548Z,0.20
2019-03-25T23:41:49.297Z,0.20
2019-03-25T23:44:19.110Z,0.20
2019-03-25T23:46:48.871Z,0.40
2019-03-25T23:49:18.575Z,0.20
2019-03-25T23:51:51.340Z,0.33
2019-03-25T23:54:21.122Z,0.33
2019-03-25T23:56:50.899Z,0.30
2019-03-25T23:59:20.621Z,0.20
